Time;durP1;ratioP1;P1;durP2;ratioP2;P2;SDS_P1;SDS_P2;PMS_P1;PMS_P2;Temp;Humidity;BMP_temperature;BMP_pressure;BME280_temperature;BME280_humidity;BME280_pressure;Samples;Min_cycle;Max_cycle;Signal;HPM_P1;HPM_P2
2021/05/01 00:00:09;;;;;;;19.48;13.73;;;6.70;99.90;;;;;;5006005;28;20054;-88
2021/05/01 00:02:45;;;;;;;23.67;12.15;;;6.30;99.90;;;;;;5010894;28;20048;-89
2021/05/01 00:05:16;;;;;;;26.10;15.00;;;7.10;99.90;;;;;;5031966;28;20037;-90
2021/05/01 00:07:54;;;;;;;22.83;13.45;;;6.20;99.90;;;;;;5008323;28;20042;-89
2021/05/01 00:10:24;;;;;;;22.63;13.23;;;6.20;99.90;;;;;;5031165;28;20045;-89
2021/05/01 00:13:24;;;;;;;25.27;12.35;;;6.10;99.90;;;;;;5014906;28;20481;-88
2021/05/01 00:15:56;;;;;;;26.05;15.05;;;6.10;99.90;;;;;;5025052;28;20061;-89
2021/05/01 00:18:24;;;;;;;27.15;16.08;;;6.00;99.90;;;;;;5010862;28;20057;-91
2021/05/01 00:20:53;;;;;;;22.90;15.35;;;6.00;99.90;;;;;;5027938;28;20057;-88
2021/05/01 00:23:21;;;;;;;25.75;15.13;;;5.90;99.90;;;;;;5029035;28;20046;-87
2021/05/01 00:25:52;;;;;;;25.42;15.32;;;5.40;99.90;;;;;;5032282;28;20054;-88
2021/05/01 00:28:20;;;;;;;26.73;14.90;;;5.80;99.90;;;;;;5017282;28;20045;-87
2021/05/01 00:30:48;;;;;;;27.42;17.13;;;5.70;99.90;;;;;;5002993;28;20042;-89
2021/05/01 00:33:18;;;;;;;35.40;17.40;;;6.30;99.90;;;;;;5019352;28;20083;-88
2021/05/01 00:35:47;;;;;;;32.13;18.75;;;5.60;99.90;;;;;;4673756;28;10000516;-87
2021/05/01 00:38:15;;;;;;;32.17;17.08;;;4.70;99.90;;;;;;5033859;28;20054;-88
2021/05/01 00:40:43;;;;;;;34.30;18.52;;;5.50;99.90;;;;;;5016295;28;20045;-87
2021/05/01 00:43:14;;;;;;;30.02;17.38;;;5.40;99.90;;;;;;5030439;28;20053;-88
2021/05/01 00:45:44;;;;;;;27.83;16.85;;;7.60;99.90;;;;;;4999471;28;20049;-89
2021/05/01 00:48:12;;;;;;;28.55;17.55;;;4.80;99.90;;;;;;5029105;28;20053;-88
2021/05/01 00:50:40;;;;;;;30.13;19.48;;;5.30;99.90;;;;;;5019594;28;20056;-89
2021/05/01 00:53:07;;;;;;;30.92;19.00;;;5.20;99.90;;;;;;5036645;28;20061;-88
2021/05/01 00:55:37;;;;;;;27.83;17.20;;;5.20;99.90;;;;;;5018899;28;20041;-88
2021/05/01 00:58:11;;;;;;;27.38;15.70;;;5.10;99.90;;;;;;5034727;28;20053;-88
2021/05/01 01:03:27;;;;;;;33.03;18.55;;;5.10;99.90;;;;;;5014718;28;20058;-87
2021/05/01 01:05:54;;;;;;;32.83;20.63;;;5.10;99.90;;;;;;5003461;28;20053;-87
2021/05/01 01:08:22;;;;;;;33.10;19.63;;;5.10;99.90;;;;;;5015064;28;20041;-87
2021/05/01 01:10:51;;;;;;;38.33;21.30;;;5.10;99.90;;;;;;5001895;28;20056;-88
2021/05/01 01:13:21;;;;;;;34.85;20.48;;;5.10;99.90;;;;;;5016060;28;20053;-87
2021/05/01 01:15:49;;;;;;;34.28;21.88;;;5.10;99.90;;;;;;5015350;28;20049;-87
2021/05/01 01:18:18;;;;;;;36.72;21.40;;;5.10;99.90;;;;;;5017285;28;20064;-88
2021/05/01 01:20:49;;;;;;;38.55;20.58;;;5.00;99.90;;;;;;5027362;28;20056;-88
2021/05/01 01:23:18;;;;;;;33.13;18.80;;;5.00;99.90;;;;;;5020024;28;20060;-88
2021/05/01 01:25:47;;;;;;;30.63;19.17;;;6.50;99.90;;;;;;5025883;28;20042;-89
2021/05/01 01:28:15;;;;;;;36.25;20.90;;;5.20;99.90;;;;;;5014866;28;20064;-88
2021/05/01 01:30:43;;;;;;;33.17;18.50;;;4.90;99.90;;;;;;5032144;28;20050;-89
2021/05/01 01:33:14;;;;;;;27.73;16.20;;;4.90;99.90;;;;;;5008667;28;20064;-89
2021/05/01 01:35:46;;;;;;;35.53;17.85;;;6.50;99.90;;;;;;4978830;28;20422;-89
2021/05/01 01:38:20;;;;;;;28.23;18.02;;;4.80;99.90;;;;;;5042446;28;20049;-89
2021/05/01 01:40:49;;;;;;;29.27;16.77;;;7.00;99.90;;;;;;5043646;28;20081;-88
2021/05/01 01:43:21;;;;;;;30.17;18.30;;;4.80;99.90;;;;;;4993618;28;20045;-87
2021/05/01 01:45:52;;;;;;;31.13;17.63;;;5.00;99.90;;;;;;4994492;28;20090;-86
2021/05/01 01:48:21;;;;;;;25.52;16.65;;;4.80;99.90;;;;;;4992139;28;20050;-88
2021/05/01 01:50:50;;;;;;;30.77;17.80;;;6.30;99.90;;;;;;5007645;28;20384;-89
2021/05/01 01:53:18;;;;;;;32.05;16.38;;;4.80;99.90;;;;;;5020281;28;20057;-88
2021/05/01 01:55:46;;;;;;;29.35;16.70;;;5.10;99.90;;;;;;5009641;28;20428;-88
2021/05/01 01:58:14;;;;;;;27.23;16.80;;;4.70;99.90;;;;;;5022824;28;20501;-88
2021/05/01 02:00:42;;;;;;;28.60;18.98;;;4.70;99.90;;;;;;5015869;28;20053;-89
2021/05/01 02:03:27;;;;;;;28.10;15.63;;;4.60;99.90;;;;;;5012651;28;20060;-88
2021/05/01 02:05:56;;;;;;;28.95;17.92;;;4.60;99.90;;;;;;5034569;28;20049;-88
2021/05/01 02:08:24;;;;;;;27.27;15.63;;;4.60;99.90;;;;;;5030392;28;20053;-89
2021/05/01 02:10:53;;;;;;;31.92;17.92;;;4.40;99.90;;;;;;5038396;28;20404;-89
2021/05/01 02:13:33;;;;;;;28.15;16.52;;;4.40;99.90;;;;;;5014222;28;20056;-88
2021/05/01 02:16:01;;;;;;;33.92;18.50;;;5.10;99.90;;;;;;4998554;28;20057;-88
2021/05/01 02:18:30;;;;;;;28.98;17.27;;;5.40;99.90;;;;;;5013572;28;20053;-88
2021/05/01 02:20:57;;;;;;;31.83;16.90;;;4.30;99.90;;;;;;5012389;28;20061;-88
2021/05/01 02:23:25;;;;;;;33.50;17.13;;;4.70;99.90;;;;;;5013513;28;20049;-87
2021/05/01 02:25:52;;;;;;;35.38;17.77;;;4.10;99.90;;;;;;5005448;28;20056;-88
2021/05/01 02:28:38;;;;;;;26.98;15.43;;;5.20;99.90;;;;;;4994577;28;20057;-89
2021/05/01 02:31:14;;;;;;;31.83;16.10;;;4.00;99.90;;;;;;4964649;28;20057;-89
2021/05/01 02:33:42;;;;;;;27.75;16.13;;;3.90;99.90;;;;;;5006137;28;20056;-88
2021/05/01 02:36:11;;;;;;;30.13;18.35;;;3.90;99.90;;;;;;5027732;28;20064;-87
2021/05/01 02:38:43;;;;;;;31.25;18.15;;;3.80;99.90;;;;;;4993110;28;20061;-88
2021/05/01 02:41:11;;;;;;;33.33;19.15;;;3.80;99.90;;;;;;5019978;28;20148;-88
2021/05/01 02:43:39;;;;;;;36.22;21.85;;;5.70;99.90;;;;;;5005841;28;20045;-88
2021/05/01 02:46:06;;;;;;;30.73;20.10;;;3.70;99.90;;;;;;5007038;28;20045;-88
2021/05/01 02:48:34;;;;;;;28.40;16.38;;;3.70;99.90;;;;;;5007379;28;20116;-88
2021/05/01 02:51:01;;;;;;;30.95;18.25;;;3.80;99.90;;;;;;4993875;28;20053;-88
2021/05/01 02:53:30;;;;;;;33.08;18.92;;;3.70;99.90;;;;;;5021750;28;20188;-88
2021/05/01 02:56:04;;;;;;;34.47;19.45;;;4.90;99.90;;;;;;5012445;28;20061;-88
2021/05/01 02:58:32;;;;;;;35.25;18.30;;;3.70;99.90;;;;;;5004410;28;20048;-88
2021/05/01 03:00:59;;;;;;;29.23;17.48;;;5.80;99.90;;;;;;5019536;28;20049;-89
2021/05/01 03:03:27;;;;;;;32.80;18.48;;;3.60;99.90;;;;;;4995288;28;20058;-88
2021/05/01 03:05:55;;;;;;;27.70;16.73;;;3.50;99.90;;;;;;4992845;28;20069;-88
2021/05/01 03:08:22;;;;;;;32.10;18.70;;;3.50;99.90;;;;;;5007390;28;20052;-87
2021/05/01 03:10:50;;;;;;;37.90;21.48;;;3.50;99.90;;;;;;5033467;28;20060;-88
2021/05/01 03:13:17;;;;;;;35.80;20.23;;;5.10;99.90;;;;;;4989450;28;20531;-87
2021/05/01 03:15:46;;;;;;;33.63;19.70;;;3.50;99.90;;;;;;5004631;28;20053;-88
2021/05/01 03:18:14;;;;;;;30.95;18.95;;;5.10;99.90;;;;;;5005346;28;20496;-88
2021/05/01 03:20:43;;;;;;;30.23;20.10;;;3.50;99.90;;;;;;5021604;28;20049;-87
2021/05/01 03:23:11;;;;;;;32.17;18.20;;;3.40;99.90;;;;;;5029212;28;20102;-89
2021/05/01 03:25:39;;;;;;;31.88;18.40;;;3.30;99.90;;;;;;4999293;28;20057;-87
2021/05/01 03:28:06;;;;;;;36.55;20.88;;;3.40;99.90;;;;;;5030678;28;20421;-87
2021/05/01 03:30:34;;;;;;;30.67;18.08;;;4.50;99.90;;;;;;4999227;28;20041;-87
2021/05/01 03:33:02;;;;;;;37.85;20.30;;;3.20;99.90;;;;;;5014043;28;20037;-87
2021/05/01 03:35:29;;;;;;;41.97;21.65;;;3.10;99.90;;;;;;4994285;28;20050;-87
2021/05/01 03:37:59;;;;;;;40.05;22.83;;;4.70;99.90;;;;;;5003110;28;20053;-86
2021/05/01 03:40:27;;;;;;;39.47;20.85;;;3.20;99.90;;;;;;5038207;28;20056;-86
2021/05/01 03:42:54;;;;;;;39.90;23.60;;;4.50;99.90;;;;;;5020372;28;20057;-87
2021/05/01 03:45:22;;;;;;;36.60;20.08;;;4.60;99.90;;;;;;5020386;28;20410;-87
2021/05/01 03:47:50;;;;;;;32.90;19.50;;;4.90;99.90;;;;;;5011848;28;20500;-87
2021/05/01 03:50:18;;;;;;;32.97;21.55;;;4.10;99.90;;;;;;4995465;28;20056;-86
2021/05/01 03:52:45;;;;;;;37.17;18.95;;;3.10;99.90;;;;;;5015319;28;20481;-87
2021/05/01 03:55:13;;;;;;;43.22;21.65;;;3.10;99.90;;;;;;5005016;28;20049;-87
2021/05/01 03:57:55;;;;;;;36.53;20.33;;;3.10;99.90;;;;;;5014348;28;20516;-86
2021/05/01 04:00:23;;;;;;;31.85;20.13;;;3.00;99.90;;;;;;5020521;28;20052;-87
2021/05/01 04:02:52;;;;;;;35.25;19.88;;;4.50;99.90;;;;;;5014225;28;20045;-87
2021/05/01 04:05:21;;;;;;;38.33;21.58;;;3.00;99.90;;;;;;5035362;28;20057;-87
2021/05/01 04:07:50;;;;;;;39.95;21.05;;;2.90;99.90;;;;;;5030406;28;20064;-87
2021/05/01 04:10:20;;;;;;;35.70;19.15;;;2.90;99.90;;;;;;5033471;28;20049;-87
2021/05/01 04:12:47;;;;;;;40.08;23.40;;;2.80;99.90;;;;;;5009090;28;20061;-87
2021/05/01 04:15:15;;;;;;;44.00;21.40;;;2.80;99.90;;;;;;5031899;28;20053;-87
2021/05/01 04:17:43;;;;;;;35.75;19.48;;;2.80;99.90;;;;;;5033594;28;20042;-87
2021/05/01 04:20:12;;;;;;;34.83;21.27;;;2.80;99.90;;;;;;4996171;28;20049;-87
2021/05/01 04:22:40;;;;;;;34.60;21.02;;;2.80;99.90;;;;;;5023598;28;20049;-88
2021/05/01 04:25:08;;;;;;;30.45;19.63;;;2.70;99.90;;;;;;5023050;28;20358;-88
2021/05/01 04:27:36;;;;;;;39.38;20.95;;;2.70;99.90;;;;;;5040008;28;20065;-87
2021/05/01 04:30:05;;;;;;;35.28;21.83;;;1.80;99.90;;;;;;5009385;28;20057;-88
2021/05/01 04:32:33;;;;;;;30.50;19.23;;;2.60;99.90;;;;;;5030835;28;20046;-87
2021/05/01 04:35:03;;;;;;;35.63;21.50;;;2.60;99.90;;;;;;5000446;28;20060;-87
2021/05/01 04:37:31;;;;;;;29.33;18.77;;;2.60;99.90;;;;;;5026413;28;20368;-87
2021/05/01 04:39:59;;;;;;;33.75;18.23;;;3.60;99.90;;;;;;5004948;28;20568;-87
2021/05/01 04:42:26;;;;;;;31.35;19.05;;;2.60;99.90;;;;;;4987325;28;20088;-87
2021/05/01 04:44:56;;;;;;;31.25;16.13;;;2.70;99.90;;;;;;4974994;28;20065;-87
2021/05/01 04:47:24;;;;;;;30.60;18.02;;;2.70;99.90;;;;;;5022619;28;20068;-87
2021/05/01 04:49:52;;;;;;;27.20;17.52;;;2.70;99.90;;;;;;4653203;28;9999775;-87
2021/05/01 04:52:20;;;;;;;32.20;17.75;;;2.60;99.90;;;;;;5013020;28;20072;-87
2021/05/01 04:54:48;;;;;;;26.77;15.88;;;2.60;99.90;;;;;;4992779;28;20065;-87
2021/05/01 04:57:15;;;;;;;30.65;17.42;;;2.60;99.90;;;;;;5039163;28;20496;-87
2021/05/01 04:59:43;;;;;;;30.73;17.92;;;2.60;99.90;;;;;;4992124;28;20069;-87
2021/05/01 05:02:10;;;;;;;32.70;17.83;;;2.00;99.90;;;;;;5001063;28;20045;-87
2021/05/01 05:04:39;;;;;;;30.42;17.65;;;2.60;99.90;;;;;;5006914;28;20073;-88
2021/05/01 05:07:07;;;;;;;25.67;15.25;;;3.20;99.90;;;;;;5025745;28;20052;-87
2021/05/01 05:09:35;;;;;;;27.75;16.20;;;2.60;99.90;;;;;;5022017;28;20493;-87
2021/05/01 05:12:03;;;;;;;31.83;19.90;;;2.70;99.90;;;;;;5011677;28;20065;-87
2021/05/01 05:14:31;;;;;;;30.55;17.27;;;2.70;99.90;;;;;;5009555;28;20049;-87
2021/05/01 05:16:58;;;;;;;26.02;16.65;;;2.80;99.90;;;;;;5008415;28;20050;-86
2021/05/01 05:19:25;;;;;;;27.15;15.27;;;2.80;99.90;;;;;;5046960;28;20059;-87
2021/05/01 05:21:53;;;;;;;33.28;20.33;;;3.20;99.90;;;;;;5013732;28;20037;-87
2021/05/01 05:24:21;;;;;;;33.13;18.25;;;3.00;99.90;;;;;;5036848;28;20036;-87
2021/05/01 05:26:48;;;;;;;31.38;17.65;;;3.00;99.90;;;;;;5037133;28;20059;-87
2021/05/01 05:29:15;;;;;;;28.38;16.45;;;3.00;99.90;;;;;;5036308;28;20034;-88
2021/05/01 05:31:44;;;;;;;28.80;16.70;;;3.10;99.90;;;;;;5024877;28;20053;-87
2021/05/01 05:34:11;;;;;;;27.50;18.30;;;3.10;99.90;;;;;;5016900;28;20562;-87
2021/05/01 05:36:40;;;;;;;31.95;16.50;;;3.60;99.90;;;;;;5033654;28;20053;-87
2021/05/01 05:39:08;;;;;;;28.67;17.35;;;3.20;99.90;;;;;;5010478;28;20045;-87
2021/05/01 05:41:35;;;;;;;30.48;18.50;;;3.30;99.90;;;;;;5001428;28;20045;-87
2021/05/01 05:44:04;;;;;;;31.10;19.25;;;3.40;99.90;;;;;;5001374;28;20044;-87
2021/05/01 05:46:31;;;;;;;31.02;17.27;;;3.50;99.90;;;;;;4997614;28;20060;-87
2021/05/01 05:48:58;;;;;;;35.00;19.20;;;3.50;99.90;;;;;;5033467;28;20054;-87
2021/05/01 05:51:26;;;;;;;30.45;17.80;;;3.60;99.90;;;;;;4997864;28;20053;-87
2021/05/01 05:53:53;;;;;;;31.58;18.30;;;3.70;99.90;;;;;;5013878;28;20037;-87
2021/05/01 05:56:20;;;;;;;30.08;16.85;;;4.60;99.90;;;;;;4998380;28;20049;-87
2021/05/01 05:58:48;;;;;;;30.52;17.60;;;3.80;99.90;;;;;;4987754;28;20038;-87
2021/05/01 06:01:16;;;;;;;28.70;17.65;;;4.00;99.90;;;;;;5022898;28;20056;-87
2021/05/01 06:03:47;;;;;;;31.33;16.95;;;4.00;99.90;;;;;;5037497;28;20049;-87
2021/05/01 06:06:24;;;;;;;30.27;19.02;;;4.10;99.90;;;;;;4999576;28;20041;-87
2021/05/01 06:08:53;;;;;;;29.92;17.92;;;4.20;99.90;;;;;;5026771;28;20049;-87
2021/05/01 06:11:22;;;;;;;28.25;16.80;;;4.30;99.90;;;;;;5010949;28;20076;-89
2021/05/01 06:13:51;;;;;;;34.03;19.05;;;4.40;99.90;;;;;;5028225;28;20057;-87
2021/05/01 06:16:22;;;;;;;31.60;18.23;;;4.40;99.90;;;;;;5016689;28;20053;-87
2021/05/01 06:18:51;;;;;;;31.73;18.17;;;4.50;99.90;;;;;;5034359;28;20053;-88
2021/05/01 06:21:19;;;;;;;34.58;18.27;;;4.60;99.90;;;;;;5027496;28;20037;-88
2021/05/01 06:23:47;;;;;;;26.52;17.55;;;5.00;99.90;;;;;;5004237;28;20064;-88
2021/05/01 06:26:15;;;;;;;28.25;16.10;;;4.80;99.90;;;;;;5034699;28;20060;-89
2021/05/01 06:28:44;;;;;;;35.05;17.45;;;4.90;99.90;;;;;;5038015;28;20049;-90
2021/05/01 06:31:11;;;;;;;36.58;20.00;;;5.00;99.90;;;;;;5023693;28;20057;-88
2021/05/01 06:33:40;;;;;;;30.27;19.17;;;5.20;99.90;;;;;;5023088;28;20053;-88
2021/05/01 06:36:11;;;;;;;24.98;16.38;;;5.90;99.90;;;;;;5024878;28;20061;-87
2021/05/01 06:38:39;;;;;;;27.90;16.38;;;6.80;99.90;;;;;;5025378;28;20124;-88
2021/05/01 06:41:12;;;;;;;29.80;16.45;;;5.50;99.90;;;;;;5011363;28;20053;-88
2021/05/01 06:43:59;;;;;;;25.02;15.07;;;5.60;99.90;;;;;;5038377;28;20413;-87
2021/05/01 06:46:29;;;;;;;24.38;13.68;;;5.70;99.90;;;;;;5027873;28;20049;-89
2021/05/01 06:48:58;;;;;;;26.38;13.10;;;5.90;99.90;;;;;;5047355;28;20053;-88
2021/05/01 06:51:28;;;;;;;27.33;14.10;;;6.10;99.90;;;;;;4663778;28;10000610;-88
2021/05/01 06:53:59;;;;;;;24.65;12.48;;;6.00;99.90;;;;;;5017688;28;20052;-88
2021/05/01 06:56:29;;;;;;;21.83;11.45;;;7.30;99.90;;;;;;5036805;28;20162;-86
2021/05/01 06:59:04;;;;;;;26.98;14.15;;;6.30;99.90;;;;;;5008684;28;20029;-88
2021/05/01 07:01:31;;;;;;;20.33;12.05;;;7.50;99.90;;;;;;5008214;28;20049;-88
2021/05/01 07:04:00;;;;;;;17.10;10.23;;;6.40;99.90;;;;;;4999273;28;20053;-86
2021/05/01 07:06:30;;;;;;;22.70;12.77;;;6.40;99.90;;;;;;5040952;28;20136;-89
2021/05/01 07:09:04;;;;;;;28.13;12.88;;;6.50;99.90;;;;;;4997974;28;20060;-88
2021/05/01 07:11:35;;;;;;;19.23;11.25;;;6.60;99.90;;;;;;5026931;28;20064;-88
2021/05/01 07:14:04;;;;;;;21.80;9.45;;;7.70;99.90;;;;;;5035070;28;20041;-87
2021/05/01 07:16:31;;;;;;;18.83;10.30;;;6.80;99.90;;;;;;5003147;28;20045;-88
2021/05/01 07:19:17;;;;;;;22.30;11.43;;;6.90;99.90;;;;;;5038784;28;20034;-89
2021/05/01 07:21:46;;;;;;;24.02;11.90;;;7.10;99.90;;;;;;5031591;28;20107;-88
2021/05/01 07:24:14;;;;;;;22.10;10.77;;;7.20;99.90;;;;;;5022113;28;20028;-89
2021/05/01 07:26:44;;;;;;;18.40;10.63;;;8.40;99.90;;;;;;5020083;28;20049;-88
2021/05/01 07:29:27;;;;;;;19.27;10.25;;;7.40;99.90;;;;;;5033913;28;20049;-87
2021/05/01 07:31:58;;;;;;;21.27;10.38;;;8.50;99.90;;;;;;5012763;28;20052;-90
2021/05/01 07:34:29;;;;;;;19.93;8.60;;;7.70;99.90;;;;;;5031283;28;20050;-87
2021/05/01 07:37:13;;;;;;;22.33;10.95;;;7.80;99.90;;;;;;5010774;28;20300;-88
2021/05/01 07:39:41;;;;;;;15.70;8.27;;;8.00;99.90;;;;;;5013361;28;20053;-88
2021/05/01 07:42:10;;;;;;;17.60;9.68;;;8.50;99.90;;;;;;5048065;28;20037;-89
2021/05/01 07:44:39;;;;;;;15.70;8.55;;;8.20;99.90;;;;;;5038334;28;20049;-89
2021/05/01 07:47:07;;;;;;;20.40;10.38;;;8.20;99.90;;;;;;5017506;28;20041;-88
2021/05/01 07:49:37;;;;;;;14.13;8.73;;;8.30;99.90;;;;;;5030321;28;20052;-88
2021/05/01 07:52:05;;;;;;;18.52;7.53;;;8.50;99.90;;;;;;5030073;28;20060;-88
2021/05/01 07:54:34;;;;;;;16.40;7.85;;;8.60;99.90;;;;;;5039959;28;20049;-88
2021/05/01 07:57:01;;;;;;;13.48;7.57;;;8.60;99.90;;;;;;5009683;28;20045;-88
2021/05/01 07:59:29;;;;;;;16.33;8.60;;;8.70;99.90;;;;;;5030262;28;20702;-87
2021/05/01 08:01:57;;;;;;;16.95;8.63;;;8.80;99.90;;;;;;4996748;28;20035;-88
2021/05/01 08:04:24;;;;;;;13.00;8.40;;;8.90;99.90;;;;;;5028729;28;20040;-89
2021/05/01 08:06:51;;;;;;;10.30;6.32;;;9.60;99.90;;;;;;5024677;28;20068;-91
2021/05/01 08:09:19;;;;;;;15.85;6.45;;;9.00;99.90;;;;;;5009323;28;20058;-89
2021/05/01 08:11:46;;;;;;;14.80;7.10;;;9.10;99.90;;;;;;5023350;28;20072;-88
2021/05/01 08:14:21;;;;;;;15.52;7.38;;;10.40;99.90;;;;;;5022822;28;20046;-88
2021/05/01 08:16:48;;;;;;;15.30;5.57;;;9.20;99.90;;;;;;5011177;28;20041;-90
2021/05/01 08:19:17;;;;;;;14.20;5.45;;;9.20;99.90;;;;;;5012552;28;20045;-88
2021/05/01 08:21:46;;;;;;;10.75;5.32;;;9.70;99.90;;;;;;5023842;28;20080;-89
2021/05/01 08:24:14;;;;;;;12.65;5.20;;;9.30;99.90;;;;;;4998690;28;20053;-90
2021/05/01 08:26:41;;;;;;;10.70;5.47;;;10.20;99.90;;;;;;5023557;28;20065;-88
2021/05/01 08:29:09;;;;;;;11.05;5.53;;;9.40;99.90;;;;;;4986146;28;20068;-87
2021/05/01 08:31:37;;;;;;;12.98;6.30;;;9.50;99.90;;;;;;4995247;28;20064;-88
2021/05/01 08:34:05;;;;;;;13.27;5.43;;;9.60;99.90;;;;;;4996625;28;20074;-89
2021/05/01 08:36:32;;;;;;;16.60;5.93;;;9.50;99.90;;;;;;5006676;28;20034;-87
2021/05/01 08:38:59;;;;;;;14.90;6.18;;;10.00;99.90;;;;;;5010745;28;20054;-86
2021/05/01 08:41:26;;;;;;;11.20;5.57;;;9.70;99.90;;;;;;4998964;28;20054;-85
2021/05/01 08:44:08;;;;;;;13.60;5.82;;;9.70;99.90;;;;;;4990731;28;20069;-87
2021/05/01 08:46:41;;;;;;;9.77;4.30;;;9.80;99.90;;;;;;5002161;28;20046;-88
2021/05/01 08:49:09;;;;;;;11.90;4.88;;;9.90;99.90;;;;;;4988708;28;20065;-88
2021/05/01 08:51:41;;;;;;;14.77;6.00;;;9.80;99.90;;;;;;4993035;28;20042;-86
2021/05/01 08:54:12;;;;;;;14.18;5.93;;;9.80;99.90;;;;;;5004760;28;20050;-85
2021/05/01 08:56:43;;;;;;;9.45;4.63;;;9.90;99.90;;;;;;5008510;28;20055;-86
2021/05/01 08:59:11;;;;;;;8.43;4.40;;;9.90;99.90;;;;;;5000241;28;20061;-86
2021/05/01 09:01:39;;;;;;;14.18;4.95;;;9.90;99.90;;;;;;5014621;28;20034;-87
2021/05/01 09:04:10;;;;;;;15.48;5.85;;;9.90;99.90;;;;;;4997068;28;20046;-86
2021/05/01 09:06:38;;;;;;;22.25;6.90;;;9.80;99.90;;;;;;5030190;28;20049;-86
2021/05/01 09:09:09;;;;;;;11.88;5.72;;;9.80;99.90;;;;;;5023131;28;20058;-88
2021/05/01 09:11:43;;;;;;;15.13;8.50;;;9.90;99.90;;;;;;5000852;28;20053;-87
2021/05/01 09:14:18;;;;;;;13.05;5.60;;;9.90;99.90;;;;;;5007429;28;20045;-87
2021/05/01 09:17:03;;;;;;;11.70;5.57;;;10.10;99.90;;;;;;4998136;28;20057;-86
2021/05/01 09:19:41;;;;;;;9.82;4.95;;;10.10;99.90;;;;;;4981299;28;20054;-86
2021/05/01 09:22:16;;;;;;;9.32;4.78;;;10.20;99.90;;;;;;4985787;28;20053;-87
2021/05/01 09:24:46;;;;;;;12.32;5.20;;;10.30;99.90;;;;;;4974408;28;20050;-86
2021/05/01 09:27:16;;;;;;;10.85;5.05;;;10.90;99.90;;;;;;5015338;28;20456;-87
2021/05/01 09:29:43;;;;;;;10.18;3.97;;;10.20;99.90;;;;;;5020829;28;20061;-86
2021/05/01 09:32:27;;;;;;;17.40;4.40;;;11.00;99.90;;;;;;5005852;28;20451;-87
2021/05/01 09:34:57;;;;;;;11.10;6.00;;;10.20;99.90;;;;;;5006606;28;20099;-87
2021/05/01 09:37:27;;;;;;;10.02;4.53;;;10.30;99.90;;;;;;5002084;28;20053;-86
2021/05/01 09:39:59;;;;;;;15.55;5.05;;;10.40;99.90;;;;;;5012694;28;20048;-88
2021/05/01 09:42:29;;;;;;;10.93;5.00;;;10.50;99.90;;;;;;4999478;28;20049;-86
2021/05/01 09:45:21;;;;;;;12.55;5.88;;;10.70;99.90;;;;;;4998255;28;20503;-86
2021/05/01 09:47:50;;;;;;;10.82;5.60;;;10.80;99.90;;;;;;4997105;28;20053;-86
2021/05/01 09:50:23;;;;;;;10.30;4.70;;;11.00;99.90;;;;;;4995336;28;20655;-86
2021/05/01 09:52:58;;;;;;;9.40;4.32;;;11.10;99.90;;;;;;4997851;28;20056;-86
2021/05/01 09:55:47;;;;;;;6.65;3.63;;;11.30;99.90;;;;;;5011937;28;20053;-85
2021/05/01 09:58:30;;;;;;;9.45;3.42;;;11.40;99.60;;;;;;5018600;27;20382;-85
2021/05/01 10:01:16;;;;;;;3.30;3.00;;;11.60;99.20;;;;;;5006080;28;20053;-86
2021/05/01 10:03:45;;;;;;;8.75;4.18;;;11.70;97.10;;;;;;4987175;28;20669;-84
2021/05/01 10:06:15;;;;;;;7.78;4.30;;;11.90;96.60;;;;;;4981886;28;21083;-85
2021/05/01 10:08:43;;;;;;;11.50;5.37;;;12.10;97.50;;;;;;5009342;28;20054;-85
2021/05/01 10:11:12;;;;;;;9.77;4.60;;;12.40;96.20;;;;;;5005287;28;20065;-86
2021/05/01 10:13:51;;;;;;;9.68;4.75;;;12.50;96.60;;;;;;5006668;28;20054;-86
2021/05/01 10:16:20;;;;;;;10.55;3.95;;;12.70;94.90;;;;;;5017969;28;20042;-87
2021/05/01 10:19:05;;;;;;;9.93;4.35;;;12.80;95.50;;;;;;4997793;28;20061;-86
2021/05/01 10:21:34;;;;;;;13.23;5.32;;;12.80;93.30;;;;;;5020871;28;20413;-85
2021/05/01 10:24:01;;;;;;;12.93;4.82;;;12.80;94.20;;;;;;4991719;28;20080;-85
2021/05/01 10:26:59;;;;;;;9.35;4.68;;;12.80;93.70;;;;;;5009230;28;20523;-88
2021/05/01 10:29:39;;;;;;;8.48;4.97;;;12.70;91.80;;;;;;5008048;28;20046;-84
2021/05/01 10:32:28;;;;;;;10.55;4.28;;;12.50;92.60;;;;;;5018238;28;20057;-85
2021/05/01 10:34:57;;;;;;;8.32;3.88;;;12.50;92.50;;;;;;5006677;28;20050;-86
2021/05/01 10:37:31;;;;;;;7.28;3.83;;;12.50;93.00;;;;;;5003868;28;20054;-87
2021/05/01 10:39:58;;;;;;;19.90;7.47;;;12.40;92.30;;;;;;5032031;28;20057;-86
2021/05/01 10:42:29;;;;;;;8.80;5.22;;;12.70;91.20;;;;;;5000875;28;20046;-85
2021/05/01 10:45:00;;;;;;;9.20;4.22;;;12.60;91.40;;;;;;5014525;28;20046;-86
2021/05/01 10:47:28;;;;;;;11.77;4.28;;;12.50;91.40;;;;;;5027238;28;20057;-86
2021/05/01 10:50:22;;;;;;;13.70;4.72;;;12.40;90.70;;;;;;5014497;28;20061;-87
2021/05/01 10:52:50;;;;;;;10.05;4.32;;;12.40;91.30;;;;;;5011947;28;20046;-83
2021/05/01 10:55:17;;;;;;;8.35;3.70;;;12.50;91.70;;;;;;5044885;28;20046;-86
2021/05/01 10:58:04;;;;;;;7.65;4.45;;;12.60;90.60;;;;;;5008294;28;20049;-86
2021/05/01 11:00:43;;;;;;;6.82;4.28;;;12.60;85.30;;;;;;5003589;28;20064;-88
2021/05/01 11:03:14;;;;;;;8.68;4.15;;;12.60;88.60;;;;;;5016238;28;20060;-85
2021/05/01 11:05:42;;;;;;;10.02;4.70;;;12.80;89.00;;;;;;5012965;28;20042;-86
2021/05/01 11:08:21;;;;;;;9.18;4.70;;;13.00;89.00;;;;;;5020225;28;20045;-87
2021/05/01 11:10:52;;;;;;;7.40;4.47;;;13.30;88.50;;;;;;5010018;28;20048;-87
2021/05/01 11:13:28;;;;;;;7.43;4.20;;;13.50;88.60;;;;;;5020416;28;20054;-86
2021/05/01 11:15:58;;;;;;;10.40;6.13;;;13.70;83.70;;;;;;5004330;28;20057;-87
2021/05/01 11:18:36;;;;;;;6.50;3.80;;;13.70;86.90;;;;;;5003304;28;20058;-88
2021/05/01 11:21:07;;;;;;;13.73;5.13;;;13.80;85.30;;;;;;5001593;28;20041;-87
2021/05/01 11:23:39;;;;;;;8.38;4.97;;;13.80;84.40;;;;;;4992735;28;20288;-86
2021/05/01 11:26:07;;;;;;;7.40;4.90;;;13.80;82.80;;;;;;5012558;28;20409;-86
2021/05/01 11:28:39;;;;;;;10.23;4.22;;;13.80;83.30;;;;;;4996834;28;20496;-86
2021/05/01 11:31:06;;;;;;;8.20;4.65;;;13.90;82.10;;;;;;5001128;28;20051;-86
2021/05/01 11:33:34;;;;;;;12.18;4.88;;;13.90;81.60;;;;;;5001044;28;20045;-86
2021/05/01 11:36:02;;;;;;;10.82;5.28;;;14.10;81.50;;;;;;5010620;28;20049;-86
2021/05/01 11:38:38;;;;;;;11.13;4.90;;;14.20;79.90;;;;;;4992610;28;20060;-86
2021/05/01 11:41:11;;;;;;;10.20;4.78;;;14.50;76.90;;;;;;4988066;28;20053;-86
2021/05/01 11:43:40;;;;;;;10.13;5.00;;;14.60;74.20;;;;;;4997218;28;20057;-86
2021/05/01 11:46:13;;;;;;;9.70;5.10;;;14.70;75.20;;;;;;4997126;28;20046;-85
2021/05/01 11:48:48;;;;;;;14.20;5.10;;;14.80;73.20;;;;;;5020888;28;20042;-86
2021/05/01 11:51:25;;;;;;;10.25;4.70;;;14.70;72.00;;;;;;5000914;28;20552;-86
2021/05/01 11:54:01;;;;;;;10.57;4.97;;;14.50;70.00;;;;;;5000560;28;20060;-85
2021/05/01 11:56:45;;;;;;;8.52;4.78;;;14.40;71.10;;;;;;5002486;28;20057;-86
2021/05/01 11:59:14;;;;;;;13.20;4.53;;;14.20;71.40;;;;;;5007321;23;20053;-86
2021/05/01 12:01:57;;;;;;;11.77;5.00;;;14.10;72.20;;;;;;4992424;28;20066;-87
2021/05/01 12:04:47;;;;;;;7.95;4.85;;;14.10;72.70;;;;;;5003870;28;20062;-85
2021/05/01 12:07:39;;;;;;;9.40;4.90;;;14.00;71.30;;;;;;5005490;28;20065;-85
2021/05/01 12:10:18;;;;;;;10.05;3.92;;;13.90;71.70;;;;;;5000038;28;20049;-86
2021/05/01 12:13:11;;;;;;;7.72;4.20;;;13.80;72.00;;;;;;4998902;28;20521;-86
2021/05/01 12:15:45;;;;;;;9.65;5.13;;;13.80;72.20;;;;;;5009142;28;20061;-86
2021/05/01 12:18:12;;;;;;;11.98;5.05;;;13.80;73.60;;;;;;4985096;28;20057;-86
2021/05/01 12:20:40;;;;;;;7.68;3.85;;;13.80;73.80;;;;;;4991769;28;20056;-86
2021/05/01 12:23:10;;;;;;;7.70;4.25;;;13.80;75.50;;;;;;5016676;28;20064;-81
2021/05/01 12:25:45;;;;;;;6.80;4.20;;;13.80;75.70;;;;;;5010777;28;20057;-88
2021/05/01 12:28:13;;;;;;;7.60;4.28;;;13.80;76.10;;;;;;5005840;28;20038;-86
2021/05/01 12:30:47;;;;;;;12.63;4.07;;;13.90;75.60;;;;;;5003138;28;20058;-86
2021/05/01 12:33:31;;;;;;;10.15;4.30;;;13.90;73.60;;;;;;4988435;28;20053;-87
2021/05/01 12:36:06;;;;;;;6.53;3.75;;;13.90;72.10;;;;;;5004030;28;20061;-86
2021/05/01 12:38:40;;;;;;;5.55;3.83;;;13.90;72.80;;;;;;5017216;28;20046;-87
2021/05/01 12:41:17;;;;;;;9.18;4.38;;;14.00;71.00;;;;;;4986704;28;20042;-88
2021/05/01 12:43:50;;;;;;;9.45;3.97;;;14.00;71.70;;;;;;5001565;28;20054;-87
2021/05/01 12:46:39;;;;;;;6.20;3.78;;;14.10;71.50;;;;;;5006156;28;20058;-86
2021/05/01 12:49:20;;;;;;;5.93;4.07;;;14.10;70.60;;;;;;5010196;28;20042;-87
2021/05/01 12:52:06;;;;;;;10.25;3.28;;;14.20;71.10;;;;;;5001734;28;20054;-85
2021/05/01 12:54:38;;;;;;;4.70;4.07;;;14.30;71.80;;;;;;5015266;28;20524;-87
2021/05/01 12:57:16;;;;;;;6.45;3.65;;;14.40;71.90;;;;;;4667023;28;9999787;-88
2021/05/01 12:59:55;;;;;;;5.10;3.25;;;14.50;70.40;;;;;;5001065;28;20058;-87